createdAt,value
2023-04-16T00:00:31.888Z,99.99
2023-04-16T00:01:31.884Z,99.99
2023-04-16T00:02:31.872Z,99.99
2023-04-16T00:03:31.951Z,99.99
2023-04-16T00:04:31.790Z,99.99
2023-04-16T00:05:31.691Z,99.99
2023-04-16T00:06:31.652Z,99.99
2023-04-16T00:07:31.615Z,99.99
2023-04-16T00:08:31.603Z,99.99
2023-04-16T00:09:31.555Z,99.99
2023-04-16T00:10:31.477Z,99.99
2023-04-16T00:11:31.432Z,99.99
2023-04-16T00:12:31.417Z,99.99
2023-04-16T00:13:31.349Z,99.99
2023-04-16T00:14:31.348Z,99.99
2023-04-16T00:15:31.274Z,99.99
2023-04-16T00:16:31.245Z,99.99
2023-04-16T00:17:31.251Z,99.99
2023-04-16T00:18:31.160Z,99.99
2023-04-16T00:19:31.120Z,99.99
2023-04-16T00:20:31.106Z,99.99
2023-04-16T00:21:31.022Z,99.99
2023-04-16T00:22:30.981Z,99.99
2023-04-16T00:23:30.957Z,99.99
2023-04-16T00:24:30.912Z,99.99
2023-04-16T00:25:30.854Z,99.99
2023-04-16T00:26:30.838Z,99.99
2023-04-16T00:27:30.775Z,99.99
2023-04-16T00:28:30.751Z,99.99
2023-04-16T00:29:30.697Z,99.99
2023-04-16T00:30:30.652Z,99.99
2023-04-16T00:31:30.727Z,99.99
2023-04-16T00:32:30.646Z,99.99
2023-04-16T00:33:30.528Z,99.99
2023-04-16T00:34:30.482Z,99.99
2023-04-16T00:35:30.442Z,99.99
2023-04-16T00:36:30.405Z,99.99
2023-04-16T00:37:30.385Z,99.99
2023-04-16T00:38:30.392Z,99.99
2023-04-16T00:39:30.279Z,99.99
2023-04-16T00:40:30.240Z,99.99
2023-04-16T00:41:30.190Z,99.99
2023-04-16T00:42:30.166Z,99.99
2023-04-16T00:43:30.117Z,99.99
2023-04-16T00:44:30.070Z,99.99
2023-04-16T00:45:30.024Z,99.99
2023-04-16T00:46:30.048Z,99.99
2023-04-16T00:47:29.962Z,99.99
2023-04-16T00:48:29.917Z,99.99
2023-04-16T00:49:29.860Z,99.99
2023-04-16T00:50:29.838Z,99.99
2023-04-16T00:51:29.790Z,99.99
2023-04-16T00:52:29.746Z,99.99
2023-04-16T00:53:29.699Z,99.99
2023-04-16T00:54:29.667Z,99.99
2023-04-16T00:55:29.615Z,99.99
2023-04-16T00:56:29.576Z,99.99
2023-04-16T00:57:29.531Z,99.99
2023-04-16T00:58:29.496Z,99.99
2023-04-16T00:59:29.454Z,99.99
2023-04-16T01:00:29.436Z,99.99
2023-04-16T01:01:29.486Z,99.99
2023-04-16T01:02:29.457Z,99.99
2023-04-16T01:03:29.659Z,99.99
2023-04-16T01:04:29.366Z,99.99
2023-04-16T01:05:29.202Z,99.99
2023-04-16T01:06:29.193Z,99.99
2023-04-16T01:07:29.132Z,99.99
2023-04-16T01:08:29.707Z,99.99
2023-04-16T01:09:29.047Z,99.99
2023-04-16T01:10:28.998Z,99.99
2023-04-16T01:11:28.956Z,99.99
2023-04-16T01:12:28.938Z,99.99
2023-04-16T01:13:28.876Z,99.99
2023-04-16T01:14:28.841Z,99.99
2023-04-16T01:15:28.800Z,99.99
2023-04-16T01:16:28.809Z,99.99
2023-04-16T01:17:28.719Z,99.99
2023-04-16T01:18:28.683Z,99.99
2023-04-16T01:19:28.628Z,99.99
2023-04-16T01:20:28.606Z,99.99
2023-04-16T01:21:28.550Z,99.99
2023-04-16T01:22:28.534Z,99.99
2023-04-16T01:23:28.464Z,99.99
2023-04-16T01:24:28.452Z,99.99
2023-04-16T01:25:28.384Z,99.99
2023-04-16T01:26:28.360Z,99.99
2023-04-16T01:27:28.305Z,99.99
2023-04-16T01:28:28.264Z,99.99
2023-04-16T01:29:28.216Z,99.99
2023-04-16T01:30:28.190Z,99.99
2023-04-16T01:31:28.227Z,99.99
2023-04-16T01:32:28.129Z,99.99
2023-04-16T01:33:28.056Z,99.99
2023-04-16T01:34:28.021Z,99.99
2023-04-16T01:35:27.973Z,99.99
2023-04-16T01:36:27.929Z,99.99
2023-04-16T01:37:27.899Z,99.99
2023-04-16T01:38:27.855Z,99.99
2023-04-16T01:39:27.808Z,99.99
2023-04-16T01:40:27.772Z,99.99
2023-04-16T01:41:27.719Z,99.99
2023-04-16T01:42:27.704Z,99.99
2023-04-16T01:43:27.645Z,99.99
2023-04-16T01:44:27.597Z,99.99
2023-04-16T01:45:27.561Z,99.99
2023-04-16T01:46:27.575Z,99.99
2023-04-16T01:47:27.532Z,99.99
2023-04-16T01:48:27.456Z,99.99
2023-04-16T01:49:27.405Z,99.99
2023-04-16T01:50:27.354Z,99.99
2023-04-16T01:51:27.361Z,99.99
2023-04-16T01:52:27.276Z,99.99
2023-04-16T01:53:27.253Z,99.99
2023-04-16T01:54:27.191Z,99.99
2023-04-16T01:55:27.154Z,99.99
2023-04-16T01:56:27.109Z,99.99
2023-04-16T01:57:27.066Z,99.99
2023-04-16T01:58:27.038Z,99.99
2023-04-16T01:59:27.005Z,99.99
2023-04-16T02:00:26.952Z,99.99
2023-04-16T02:01:26.945Z,99.99
2023-04-16T02:02:26.967Z,99.99
2023-04-16T02:03:26.940Z,99.99
2023-04-16T02:04:26.783Z,99.99
2023-04-16T02:05:26.758Z,99.99
2023-04-16T02:06:26.707Z,99.99
2023-04-16T02:07:26.656Z,99.99
2023-04-16T02:08:26.620Z,99.99
2023-04-16T02:09:26.573Z,99.99
2023-04-16T02:10:26.529Z,99.99
2023-04-16T02:11:26.529Z,99.99
2023-04-16T02:12:26.448Z,99.99
2023-04-16T02:13:26.426Z,99.99
2023-04-16T02:14:26.386Z,99.99
2023-04-16T02:15:26.330Z,99.99
2023-04-16T02:16:26.423Z,99.99
2023-04-16T02:17:26.247Z,99.99
2023-04-16T02:18:26.200Z,99.99
2023-04-16T02:19:35.318Z,99.99
2023-04-16T02:20:26.117Z,99.99
2023-04-16T02:21:26.079Z,99.99
2023-04-16T02:22:26.071Z,99.99
2023-04-16T02:23:25.988Z,99.99
2023-04-16T02:24:25.951Z,99.99
2023-04-16T02:25:25.906Z,99.99
2023-04-16T02:26:25.919Z,99.99
2023-04-16T02:27:25.829Z,99.99
2023-04-16T02:28:25.796Z,99.99
2023-04-16T02:29:25.738Z,99.99
2023-04-16T02:30:25.699Z,99.99
2023-04-16T02:31:25.698Z,99.99
2023-04-16T02:32:25.652Z,99.99
2023-04-16T02:33:25.581Z,99.99
2023-04-16T02:34:25.553Z,99.99
2023-04-16T02:35:25.500Z,99.99
2023-04-16T02:36:25.452Z,99.99
2023-04-16T02:37:25.414Z,99.99
2023-04-16T02:38:25.376Z,99.99
2023-04-16T02:39:25.332Z,99.99
2023-04-16T02:40:25.297Z,99.99
2023-04-16T02:41:25.240Z,99.99
2023-04-16T02:42:25.213Z,99.99
2023-04-16T02:43:25.158Z,99.99
2023-04-16T02:44:25.122Z,99.99
2023-04-16T02:45:25.093Z,99.99
2023-04-16T02:46:25.117Z,99.99
2023-04-16T02:47:25.008Z,99.99
2023-04-16T02:48:24.957Z,99.99
2023-04-16T02:49:24.918Z,99.99
2023-04-16T02:50:24.885Z,99.99
2023-04-16T02:51:24.847Z,99.99
2023-04-16T02:52:24.804Z,99.99
2023-04-16T02:53:24.752Z,99.99
2023-04-16T02:54:24.709Z,99.99
2023-04-16T02:55:24.661Z,99.99
2023-04-16T02:56:24.630Z,99.99
2023-04-16T02:57:24.598Z,99.99
2023-04-16T02:58:24.543Z,99.99
2023-04-16T02:59:24.502Z,99.99
2023-04-16T03:00:24.465Z,99.99
2023-04-16T03:01:24.453Z,99.99
2023-04-16T03:02:24.498Z,99.99
2023-04-16T03:03:24.378Z,99.99
2023-04-16T03:04:24.391Z,99.99
2023-04-16T03:05:24.253Z,99.99
2023-04-16T03:06:24.215Z,99.99
2023-04-16T03:07:24.168Z,99.99
2023-04-16T03:08:24.140Z,99.99
2023-04-16T03:09:24.088Z,99.99
2023-04-16T03:10:24.054Z,99.99
2023-04-16T03:11:24.003Z,99.99
2023-04-16T03:12:23.963Z,99.99
2023-04-16T03:13:23.930Z,99.99
2023-04-16T03:14:23.908Z,99.99
2023-04-16T03:15:23.840Z,99.99
2023-04-16T03:16:23.919Z,99.99
2023-04-16T03:17:23.776Z,99.99
2023-04-16T03:18:23.718Z,99.99
2023-04-16T03:19:23.681Z,99.99
2023-04-16T03:20:23.642Z,99.99
2023-04-16T03:21:23.624Z,99.99
2023-04-16T03:22:23.556Z,99.99
2023-04-16T03:23:23.516Z,99.99
2023-04-16T03:24:23.472Z,99.99
2023-04-16T03:25:23.431Z,99.99
2023-04-16T03:26:23.401Z,99.99
2023-04-16T03:27:23.350Z,99.99
2023-04-16T03:28:23.307Z,99.99
2023-04-16T03:29:23.277Z,99.99
2023-04-16T03:30:23.219Z,99.99
2023-04-16T03:31:23.250Z,99.99
2023-04-16T03:32:23.202Z,99.99
2023-04-16T03:33:23.108Z,99.99
2023-04-16T03:34:23.057Z,99.99
2023-04-16T03:35:23.017Z,99.99
2023-04-16T03:36:22.972Z,99.99
2023-04-16T03:37:22.940Z,99.99
2023-04-16T03:38:22.905Z,99.99
2023-04-16T03:39:22.855Z,99.99
2023-04-16T03:40:22.808Z,99.99
2023-04-16T03:41:22.782Z,99.99
2023-04-16T03:42:22.727Z,99.99
2023-04-16T03:43:22.698Z,99.99
2023-04-16T03:44:22.643Z,99.99
2023-04-16T03:45:22.620Z,99.99
2023-04-16T03:46:22.695Z,99.99
2023-04-16T03:47:22.565Z,99.99
2023-04-16T03:48:22.490Z,99.99
2023-04-16T03:49:22.445Z,99.99
2023-04-16T03:50:22.404Z,99.99
2023-04-16T03:51:22.366Z,99.99
2023-04-16T03:52:22.315Z,99.99
2023-04-16T03:53:22.295Z,99.99
2023-04-16T03:54:23.063Z,99.99
2023-04-16T03:55:22.193Z,99.99
2023-04-16T03:56:22.150Z,99.99
2023-04-16T03:57:22.111Z,99.99
2023-04-16T03:58:22.107Z,99.99
2023-04-16T03:59:22.044Z,99.99
2023-04-16T04:00:21.986Z,99.99
2023-04-16T04:01:21.972Z,99.99
2023-04-16T04:02:22.075Z,99.99
2023-04-16T04:03:22.145Z,99.99
2023-04-16T04:04:21.921Z,99.99
2023-04-16T04:05:21.813Z,99.99
2023-04-16T04:06:21.743Z,99.99
2023-04-16T04:07:21.703Z,99.99
2023-04-16T04:08:21.664Z,99.99
2023-04-16T04:09:21.621Z,99.99
2023-04-16T04:10:21.572Z,99.99
2023-04-16T04:11:21.550Z,99.99
2023-04-16T04:12:21.492Z,99.99
2023-04-16T04:13:21.461Z,99.99
2023-04-16T04:14:21.415Z,99.99
2023-04-16T04:15:21.374Z,99.99
2023-04-16T04:16:21.365Z,99.99
2023-04-16T04:17:21.369Z,99.99
2023-04-16T04:18:21.264Z,99.99
2023-04-16T04:19:21.210Z,99.99
2023-04-16T04:20:21.167Z,99.99
2023-04-16T04:21:21.124Z,99.99
2023-04-16T04:22:21.086Z,99.99
2023-04-16T04:23:21.060Z,99.99
2023-04-16T04:24:20.999Z,99.99
2023-04-16T04:25:20.964Z,99.99
2023-04-16T04:26:20.957Z,99.99
2023-04-16T04:27:20.878Z,99.99
2023-04-16T04:28:20.847Z,99.99
2023-04-16T04:29:20.809Z,99.99
2023-04-16T04:30:20.766Z,99.99
2023-04-16T04:31:20.760Z,99.99
2023-04-16T04:32:20.756Z,99.99
2023-04-16T04:33:20.636Z,99.99
2023-04-16T04:34:20.592Z,99.99
2023-04-16T04:35:20.560Z,99.99
2023-04-16T04:36:20.525Z,99.99
2023-04-16T04:37:20.471Z,99.99
2023-04-16T04:38:20.422Z,99.99
2023-04-16T04:39:20.406Z,99.99
2023-04-16T04:40:20.347Z,99.99
2023-04-16T04:41:20.302Z,99.99
2023-04-16T04:42:20.266Z,99.99
2023-04-16T04:43:20.240Z,99.99
2023-04-16T04:44:20.175Z,99.99
2023-04-16T04:45:20.137Z,99.99
2023-04-16T04:46:20.190Z,99.99
2023-04-16T04:47:20.078Z,99.99
2023-04-16T04:48:20.010Z,99.99
2023-04-16T04:49:19.969Z,99.99
2023-04-16T04:50:19.955Z,99.99
2023-04-16T04:51:19.890Z,99.99
2023-04-16T04:52:19.847Z,99.99
2023-04-16T04:53:19.816Z,99.99
2023-04-16T04:54:19.776Z,99.99
2023-04-16T04:55:19.741Z,99.99
2023-04-16T04:56:19.678Z,99.99
2023-04-16T04:57:19.642Z,99.99
2023-04-16T04:58:19.601Z,99.99
2023-04-16T04:59:19.562Z,99.99
2023-04-16T05:00:19.515Z,99.99
2023-04-16T05:01:19.547Z,99.99
2023-04-16T05:02:19.493Z,99.99
2023-04-16T05:03:19.500Z,99.99
2023-04-16T05:04:19.616Z,99.99
2023-04-16T05:05:19.394Z,99.99
2023-04-16T05:06:19.274Z,99.99
2023-04-16T05:07:19.266Z,99.99
2023-04-16T05:08:19.194Z,99.99
2023-04-16T05:09:19.152Z,99.99
2023-04-16T05:10:19.126Z,99.99
2023-04-16T05:11:19.096Z,99.99
2023-04-16T05:12:19.029Z,99.99
2023-04-16T05:13:19.006Z,99.99
2023-04-16T05:14:18.942Z,99.99
2023-04-16T05:15:18.908Z,99.99
2023-04-16T05:16:18.886Z,99.99
2023-04-16T05:17:18.826Z,99.99
2023-04-16T05:18:18.781Z,99.99
2023-04-16T05:19:18.751Z,99.99
2023-04-16T05:20:18.697Z,99.99
2023-04-16T05:21:18.658Z,99.99
2023-04-16T05:22:18.632Z,99.99
2023-04-16T05:23:18.575Z,99.99
2023-04-16T05:24:18.533Z,99.99
2023-04-16T05:25:18.495Z,99.99
2023-04-16T05:26:18.451Z,99.99
2023-04-16T05:27:18.414Z,99.99
2023-04-16T05:28:18.379Z,99.99
2023-04-16T05:29:18.333Z,99.99
2023-04-16T05:30:18.291Z,99.99
2023-04-16T05:31:18.334Z,99.99
2023-04-16T05:32:18.213Z,99.99
2023-04-16T05:33:18.166Z,99.99
2023-04-16T05:34:18.136Z,99.99
2023-04-16T05:35:18.103Z,99.99
2023-04-16T05:36:18.039Z,99.99
2023-04-16T05:37:17.997Z,99.99
2023-04-16T05:38:18.013Z,99.99
2023-04-16T05:39:17.921Z,99.99
2023-04-16T05:40:17.885Z,99.99
2023-04-16T05:41:17.836Z,99.99
2023-04-16T05:42:17.794Z,99.99
2023-04-16T05:43:17.751Z,99.99
2023-04-16T05:44:17.708Z,99.99
2023-04-16T05:45:17.667Z,99.99
2023-04-16T05:46:17.654Z,99.99
2023-04-16T05:47:17.612Z,99.99
2023-04-16T05:48:17.549Z,99.99
2023-04-16T05:49:17.507Z,99.99
2023-04-16T05:50:17.459Z,99.99
2023-04-16T05:51:17.433Z,99.99
2023-04-16T05:52:17.394Z,99.99
2023-04-16T05:53:17.343Z,99.99
2023-04-16T05:54:17.310Z,99.99
2023-04-16T05:55:17.260Z,99.99
2023-04-16T05:56:17.219Z,99.99
2023-04-16T05:57:17.194Z,99.99
2023-04-16T05:58:17.134Z,99.99
2023-04-16T05:59:17.096Z,99.99
2023-04-16T06:00:17.051Z,99.99
2023-04-16T06:01:17.021Z,99.99
2023-04-16T06:02:17.018Z,99.99
2023-04-16T06:03:17.109Z,99.99
2023-04-16T06:04:17.000Z,99.99
2023-04-16T06:05:16.900Z,99.99
2023-04-16T06:06:16.802Z,99.99
2023-04-16T06:07:16.785Z,99.99
2023-04-16T06:08:16.734Z,99.99
2023-04-16T06:09:16.703Z,99.99
2023-04-16T06:10:16.678Z,99.99
2023-04-16T06:11:16.621Z,99.99
2023-04-16T06:12:16.556Z,99.99
2023-04-16T06:13:16.535Z,99.99
2023-04-16T06:14:16.480Z,99.99
2023-04-16T06:15:16.446Z,99.99
2023-04-16T06:16:16.427Z,99.99
2023-04-16T06:17:16.387Z,99.99
2023-04-16T06:18:16.349Z,99.99
2023-04-16T06:19:16.281Z,99.99
2023-04-16T06:20:16.234Z,99.99
2023-04-16T06:21:16.197Z,99.99
2023-04-16T06:22:16.146Z,99.99
2023-04-16T06:23:16.414Z,99.99
2023-04-16T06:24:16.073Z,99.99
2023-04-16T06:25:18.110Z,99.99
2023-04-16T06:26:15.998Z,99.99
2023-04-16T06:27:15.945Z,99.99
2023-04-16T06:28:15.920Z,99.99
2023-04-16T06:29:15.865Z,99.99
2023-04-16T06:30:15.819Z,99.99
2023-04-16T06:31:15.842Z,99.99
2023-04-16T06:32:15.750Z,99.99
2023-04-16T06:33:15.696Z,99.99
2023-04-16T06:34:15.657Z,99.99
2023-04-16T06:35:15.637Z,99.99
2023-04-16T06:36:15.571Z,99.99
2023-04-16T06:37:15.539Z,99.99
2023-04-16T06:38:15.505Z,99.99
2023-04-16T06:39:15.456Z,99.99
2023-04-16T06:40:15.407Z,99.99
2023-04-16T06:41:15.392Z,99.99
2023-04-16T06:42:15.331Z,99.99
2023-04-16T06:43:15.299Z,99.99
2023-04-16T06:44:15.253Z,99.99
2023-04-16T06:45:15.206Z,99.99
2023-04-16T06:46:15.180Z,99.99
2023-04-16T06:47:15.148Z,99.99
2023-04-16T06:48:15.085Z,99.99
2023-04-16T06:49:15.040Z,99.99
2023-04-16T06:50:14.998Z,99.99
2023-04-16T06:51:14.963Z,99.99
2023-04-16T06:52:14.931Z,99.99
2023-04-16T06:53:14.895Z,99.99
2023-04-16T06:54:14.840Z,99.99
2023-04-16T06:55:14.801Z,99.99
2023-04-16T06:56:14.767Z,99.99
2023-04-16T06:57:14.713Z,99.99
2023-04-16T06:58:14.685Z,99.99
2023-04-16T06:59:14.646Z,99.99
2023-04-16T07:00:14.615Z,99.99
2023-04-16T07:01:14.597Z,99.99
2023-04-16T07:02:14.659Z,99.99
2023-04-16T07:03:14.642Z,99.99
2023-04-16T07:04:14.552Z,99.99
2023-04-16T07:05:14.387Z,99.99
2023-04-16T07:06:14.359Z,99.99
2023-04-16T07:07:14.319Z,99.99
2023-04-16T07:08:14.263Z,99.99
2023-04-16T07:09:14.225Z,99.99
2023-04-16T07:10:14.180Z,99.99
2023-04-16T07:11:14.152Z,99.99
2023-04-16T07:12:14.108Z,99.99
2023-04-16T07:13:14.070Z,99.99
2023-04-16T07:14:14.040Z,99.99
2023-04-16T07:15:14.021Z,99.99
2023-04-16T07:16:13.973Z,99.99
2023-04-16T07:17:13.924Z,99.99
2023-04-16T07:18:13.921Z,99.99
2023-04-16T07:19:13.853Z,99.99
2023-04-16T07:20:13.819Z,99.99
2023-04-16T07:21:13.733Z,99.99
2023-04-16T07:22:13.689Z,99.99
2023-04-16T07:23:13.675Z,99.99
2023-04-16T07:24:13.611Z,99.99
2023-04-16T07:25:13.575Z,99.99
2023-04-16T07:26:13.551Z,99.99
2023-04-16T07:27:13.516Z,99.99
2023-04-16T07:28:13.494Z,99.99
2023-04-16T07:29:13.458Z,99.99
2023-04-16T07:30:13.380Z,99.99
2023-04-16T07:31:13.330Z,99.99
2023-04-16T07:32:14.843Z,99.99
2023-04-16T07:33:13.242Z,99.99
2023-04-16T07:34:13.218Z,99.99
2023-04-16T07:35:13.174Z,99.99
2023-04-16T07:36:13.119Z,99.99
2023-04-16T07:37:13.080Z,99.99
2023-04-16T07:38:13.051Z,99.99
2023-04-16T07:39:13.011Z,99.99
2023-04-16T07:40:12.967Z,99.99
2023-04-16T07:41:12.934Z,99.99
2023-04-16T07:42:12.886Z,99.99
2023-04-16T07:43:12.840Z,99.99
2023-04-16T07:44:12.802Z,99.99
2023-04-16T07:45:12.760Z,99.99
2023-04-16T07:46:12.726Z,99.99
2023-04-16T07:47:12.695Z,99.99
2023-04-16T07:48:12.643Z,99.99
2023-04-16T07:49:12.594Z,99.99
2023-04-16T07:50:12.569Z,99.99
2023-04-16T07:51:12.516Z,99.99
2023-04-16T07:52:12.484Z,99.99
2023-04-16T07:53:12.447Z,99.99
2023-04-16T07:54:12.409Z,99.99
2023-04-16T07:55:12.356Z,99.99
2023-04-16T07:56:12.326Z,99.99
2023-04-16T07:57:12.310Z,99.99
2023-04-16T07:58:12.248Z,99.99
2023-04-16T08:00:12.169Z,99.78
2023-04-16T08:01:12.119Z,99.99
2023-04-16T08:02:12.176Z,99.32
2023-04-16T08:03:12.143Z,99.32
2023-04-16T08:04:12.105Z,99.63
2023-04-16T08:05:12.041Z,99.43
2023-04-16T08:06:11.921Z,99.43
2023-04-16T08:07:11.879Z,98.50
2023-04-16T08:08:11.842Z,99.47
2023-04-16T08:09:11.916Z,99.22
2023-04-16T08:10:11.763Z,99.88
2023-04-16T08:11:11.745Z,99.78
2023-04-16T08:12:11.681Z,99.57
2023-04-16T08:13:11.643Z,99.27
2023-04-16T08:14:11.604Z,99.57
2023-04-16T08:15:11.566Z,98.20
2023-04-16T08:16:11.557Z,98.71
2023-04-16T08:17:11.498Z,98.50
2023-04-16T08:18:11.450Z,98.50
2023-04-16T08:19:11.542Z,97.79
2023-04-16T08:20:20.467Z,97.69
2023-04-16T08:21:11.328Z,97.83
2023-04-16T08:22:11.310Z,98.91
2023-04-16T08:23:11.263Z,98.24
2023-04-16T08:24:11.217Z,98.14
2023-04-16T08:25:11.175Z,97.58
2023-04-16T08:26:11.139Z,97.08
2023-04-16T08:27:18.421Z,97.08
2023-04-16T08:28:11.050Z,97.33
2023-04-16T08:29:11.405Z,97.33
2023-04-16T08:30:10.976Z,97.33
2023-04-16T08:31:10.993Z,95.29
2023-04-16T08:32:10.899Z,95.70
2023-04-16T08:33:10.885Z,95.44
2023-04-16T08:34:10.820Z,96.11
2023-04-16T08:35:10.808Z,96.72
2023-04-16T08:36:10.740Z,96.01
2023-04-16T08:37:10.707Z,95.56
2023-04-16T08:38:10.658Z,95.96
2023-04-16T08:39:10.856Z,95.96
2023-04-16T08:40:10.589Z,95.45
2023-04-16T08:41:10.551Z,95.92
2023-04-16T08:42:10.504Z,94.70
2023-04-16T08:43:10.463Z,95.10
2023-04-16T08:44:10.421Z,96.12
2023-04-16T08:45:10.380Z,94.49
2023-04-16T08:46:10.365Z,95.00
2023-04-16T08:47:10.316Z,94.29
2023-04-16T08:48:10.267Z,94.70
2023-04-16T08:49:10.386Z,94.14
2023-04-16T08:50:10.185Z,94.45
2023-04-16T08:51:10.157Z,93.63
2023-04-16T08:52:10.128Z,93.48
2023-04-16T08:53:10.082Z,91.55
2023-04-16T08:54:10.037Z,91.91
2023-04-16T08:55:09.992Z,90.34
2023-04-16T08:56:09.961Z,90.14
2023-04-16T08:57:10.937Z,90.99
2023-04-16T08:58:09.876Z,90.69
2023-04-16T08:59:09.980Z,90.85
2023-04-16T09:00:09.833Z,89.99
2023-04-16T09:01:09.762Z,89.07
2023-04-16T09:02:09.780Z,89.48
2023-04-16T09:03:09.747Z,89.99
2023-04-16T09:04:09.756Z,88.93
2023-04-16T09:05:09.622Z,89.09
2023-04-16T09:06:09.579Z,88.54
2023-04-16T09:07:09.534Z,88.24
2023-04-16T09:08:09.499Z,87.89
2023-04-16T09:09:09.916Z,87.59
2023-04-16T09:10:09.432Z,86.82
2023-04-16T09:11:09.403Z,87.12
2023-04-16T09:12:09.375Z,86.65
2023-04-16T09:13:09.320Z,86.82
2023-04-16T09:14:09.278Z,87.02
2023-04-16T09:15:09.234Z,86.68
2023-04-16T09:16:09.264Z,86.47
2023-04-16T09:17:09.173Z,84.95
2023-04-16T09:18:09.137Z,86.02
2023-04-16T09:19:09.395Z,85.66
2023-04-16T09:20:09.059Z,85.41
2023-04-16T09:21:09.015Z,84.50
2023-04-16T09:22:08.978Z,85.15
2023-04-16T09:23:08.966Z,84.23
2023-04-16T09:24:08.924Z,85.60
2023-04-16T09:25:08.868Z,86.00
2023-04-16T09:26:08.834Z,87.26
2023-04-16T09:27:08.799Z,87.98
2023-04-16T09:28:08.778Z,88.08
2023-04-16T09:29:08.956Z,87.41
2023-04-16T09:30:08.705Z,87.10
2023-04-16T09:31:08.653Z,88.06
2023-04-16T09:32:08.744Z,88.06
2023-04-16T09:33:08.576Z,88.42
2023-04-16T09:34:08.556Z,87.71
2023-04-16T09:35:08.539Z,86.90
2023-04-16T09:36:08.496Z,88.18
2023-04-16T09:37:08.437Z,87.47
2023-04-16T09:38:08.396Z,86.10
2023-04-16T09:39:08.568Z,85.94
2023-04-16T09:40:08.324Z,85.58
2023-04-16T09:41:08.309Z,85.94
2023-04-16T09:42:08.261Z,85.98
2023-04-16T09:43:08.207Z,87.16
2023-04-16T09:44:08.182Z,86.04
2023-04-16T09:45:08.142Z,86.90
2023-04-16T09:46:08.730Z,87.10
2023-04-16T09:47:08.057Z,86.65
2023-04-16T09:48:08.041Z,86.04
2023-04-16T09:49:08.254Z,84.62
2023-04-16T09:50:07.958Z,85.53
2023-04-16T09:51:07.912Z,84.92
2023-04-16T09:52:07.879Z,85.13
2023-04-16T09:53:07.839Z,85.43
2023-04-16T09:54:07.813Z,85.64
2023-04-16T09:55:07.776Z,85.84
2023-04-16T09:56:07.729Z,86.25
2023-04-16T09:57:07.688Z,85.78
2023-04-16T09:58:07.655Z,85.84
2023-04-16T09:59:07.917Z,85.68
2023-04-16T10:00:07.580Z,85.74
2023-04-16T10:01:07.578Z,85.03
2023-04-16T10:02:15.539Z,85.84
2023-04-16T10:03:07.874Z,85.33
2023-04-16T10:04:07.500Z,85.84
2023-04-16T10:05:07.403Z,85.64
2023-04-16T10:06:07.373Z,86.25
2023-04-16T10:07:07.329Z,86.29
2023-04-16T10:08:07.280Z,85.53
2023-04-16T10:09:07.348Z,85.84
2023-04-16T10:10:07.228Z,85.98
2023-04-16T10:11:07.170Z,85.90
2023-04-16T10:12:07.132Z,85.53
2023-04-16T10:13:07.094Z,85.80
2023-04-16T10:14:07.063Z,85.70
2023-04-16T10:15:07.037Z,85.86
2023-04-16T10:16:07.052Z,84.95
2023-04-16T10:17:06.989Z,83.53
2023-04-16T10:18:06.988Z,83.97
2023-04-16T10:19:06.931Z,82.71
2023-04-16T10:20:06.852Z,84.13
2023-04-16T10:21:06.798Z,83.32
2023-04-16T10:22:06.773Z,84.40
2023-04-16T10:23:06.729Z,84.70
2023-04-16T10:24:06.690Z,83.48
2023-04-16T10:25:06.650Z,83.45
2023-04-16T10:26:06.623Z,82.73
2023-04-16T10:27:06.586Z,83.20
2023-04-16T10:28:06.565Z,83.20
2023-04-16T10:29:06.505Z,82.39
2023-04-16T10:30:06.486Z,80.87
2023-04-16T10:31:06.444Z,81.27
2023-04-16T10:32:06.395Z,81.64
2023-04-16T10:33:06.400Z,80.16
2023-04-16T10:34:06.336Z,81.07
2023-04-16T10:35:06.298Z,81.21
2023-04-16T10:36:07.632Z,81.52
2023-04-16T10:37:06.257Z,82.03
2023-04-16T10:38:06.175Z,81.45
2023-04-16T10:39:06.142Z,81.96
2023-04-16T10:40:06.097Z,83.04
2023-04-16T10:41:06.079Z,82.39
2023-04-16T10:42:06.030Z,81.88
2023-04-16T10:43:06.013Z,81.78
2023-04-16T10:44:05.958Z,81.64
2023-04-16T10:45:05.925Z,79.72
2023-04-16T10:46:05.938Z,81.54
2023-04-16T10:47:05.844Z,80.59
2023-04-16T10:48:05.814Z,81.20
2023-04-16T10:49:05.789Z,80.08
2023-04-16T10:50:05.749Z,80.08
2023-04-16T10:51:05.722Z,79.68
2023-04-16T10:52:05.678Z,80.53
2023-04-16T10:53:05.622Z,79.92
2023-04-16T10:54:05.593Z,80.53
2023-04-16T10:55:05.576Z,80.43
2023-04-16T10:56:05.531Z,80.06
2023-04-16T10:57:05.485Z,81.07
2023-04-16T10:58:05.457Z,81.38
2023-04-16T10:59:05.421Z,80.77
2023-04-16T11:00:05.383Z,80.36
2023-04-16T11:01:05.360Z,80.77
2023-04-16T11:02:05.378Z,80.06
2023-04-16T11:03:05.423Z,81.21
2023-04-16T11:04:05.425Z,80.87
2023-04-16T11:05:05.210Z,80.77
2023-04-16T11:06:05.158Z,79.75
2023-04-16T11:07:05.140Z,79.79
2023-04-16T11:08:05.103Z,79.69
2023-04-16T11:09:05.047Z,80.66
2023-04-16T11:10:05.015Z,80.97
2023-04-16T11:11:04.979Z,80.06
2023-04-16T11:12:04.941Z,80.36
2023-04-16T11:13:04.902Z,80.97
2023-04-16T11:14:04.889Z,80.26
2023-04-16T11:15:04.842Z,80.87
2023-04-16T11:16:04.844Z,81.07
2023-04-16T11:17:04.769Z,80.43
2023-04-16T11:18:04.753Z,79.78
2023-04-16T11:19:04.698Z,79.85
2023-04-16T11:20:04.652Z,78.79
2023-04-16T11:21:04.621Z,77.41
2023-04-16T11:22:04.583Z,77.07
2023-04-16T11:23:04.545Z,76.20
2023-04-16T11:24:04.503Z,75.89
2023-04-16T11:25:04.468Z,77.04
2023-04-16T11:26:04.440Z,76.33
2023-04-16T11:27:04.409Z,76.26
2023-04-16T11:28:04.362Z,75.62
2023-04-16T11:29:04.321Z,74.98
2023-04-16T11:30:04.293Z,75.52
2023-04-16T11:31:04.300Z,74.91
2023-04-16T11:32:04.221Z,74.95
2023-04-16T11:33:04.204Z,74.33
2023-04-16T11:34:04.147Z,75.55
2023-04-16T11:35:04.109Z,74.87
2023-04-16T11:36:04.075Z,74.51
2023-04-16T11:37:04.044Z,75.52
2023-04-16T11:38:04.021Z,75.31
2023-04-16T11:39:03.971Z,75.25
2023-04-16T11:40:03.934Z,76.06
2023-04-16T11:41:03.917Z,75.59
2023-04-16T11:42:03.884Z,76.17
2023-04-16T11:43:03.836Z,76.98
2023-04-16T11:44:03.826Z,76.78
2023-04-16T11:45:03.765Z,78.19
2023-04-16T11:46:07.990Z,79.14
2023-04-16T11:47:03.751Z,78.09
2023-04-16T11:48:03.687Z,77.95
2023-04-16T11:49:03.634Z,77.38
2023-04-16T11:50:03.600Z,77.25
2023-04-16T11:51:03.563Z,77.04
2023-04-16T11:52:03.516Z,76.20
2023-04-16T11:53:03.500Z,76.36
2023-04-16T11:54:03.456Z,75.62
2023-04-16T11:55:03.431Z,73.66
2023-04-16T11:56:03.379Z,73.25
2023-04-16T11:57:03.367Z,72.51
2023-04-16T11:58:03.300Z,71.09
2023-04-16T11:59:03.268Z,71.50
2023-04-16T12:00:04.513Z,73.02
2023-04-16T12:01:03.216Z,73.02
2023-04-16T12:02:03.202Z,73.12
2023-04-16T12:03:03.335Z,71.40
2023-04-16T12:04:03.370Z,72.72
2023-04-16T12:05:03.104Z,72.81
2023-04-16T12:06:03.043Z,72.41
2023-04-16T12:07:02.999Z,72.38
2023-04-16T12:08:02.957Z,71.33
2023-04-16T12:09:02.924Z,70.73
2023-04-16T12:10:02.890Z,69.42
2023-04-16T12:11:02.872Z,71.17
2023-04-16T12:12:02.826Z,71.06
2023-04-16T12:13:02.789Z,71.57
2023-04-16T12:14:02.748Z,72.11
2023-04-16T12:15:02.737Z,72.41
2023-04-16T12:16:02.698Z,71.13
2023-04-16T12:17:02.713Z,72.08
2023-04-16T12:18:02.640Z,71.60
2023-04-16T12:19:02.599Z,71.64
2023-04-16T12:20:02.544Z,71.94
2023-04-16T12:21:02.525Z,73.73
2023-04-16T12:22:02.498Z,73.90
2023-04-16T12:23:02.450Z,74.10
2023-04-16T12:24:02.408Z,73.80
2023-04-16T12:25:02.389Z,73.49
2023-04-16T12:26:02.665Z,73.33
2023-04-16T12:27:02.301Z,72.78
2023-04-16T12:28:02.268Z,73.25
2023-04-16T12:29:02.236Z,73.43
2023-04-16T12:30:02.193Z,72.61
2023-04-16T12:31:02.208Z,71.70
2023-04-16T12:32:02.173Z,72.61
2023-04-16T12:33:02.118Z,72.01
2023-04-16T12:34:02.062Z,72.01
2023-04-16T12:35:02.023Z,72.04
2023-04-16T12:36:02.182Z,72.14
2023-04-16T12:37:01.967Z,72.68
2023-04-16T12:38:01.914Z,73.43
2023-04-16T12:39:01.879Z,73.02
2023-04-16T12:40:01.842Z,73.73
2023-04-16T12:41:01.805Z,73.63
2023-04-16T12:42:01.769Z,73.73
2023-04-16T12:43:01.744Z,73.83
2023-04-16T12:44:01.692Z,74.44
2023-04-16T12:45:01.676Z,73.70
2023-04-16T12:46:03.971Z,73.43
2023-04-16T12:47:01.586Z,73.43
2023-04-16T12:48:01.578Z,74.74
2023-04-16T12:49:01.520Z,73.80
2023-04-16T12:50:01.543Z,73.86
2023-04-16T12:51:01.483Z,73.56
2023-04-16T12:52:01.410Z,73.97
2023-04-16T12:53:01.371Z,73.76